Terminal Aerodrome Forecast
Issued by NWS

Home | Current Version | Previous Version | Text Only | Print | Product List | Glossary On
Versions: 1 2 3 4 5 6 7 8 9 10 11 12 13 14 15
000
FTUS43 KAPX 301120
TAFTVC
TAF
KTVC 301120Z 3012/0112 00000KT P6SM OVC035
     FM301300 VRB03KT 6SM -SHRA OVC035
     FM301700 35006KT 6SM -SHRA OVC016
     FM302000 35008KT P6SM OVC022
     FM302300 34012KT P6SM BKN025
     FM010200 33011KT P6SM OVC011=

USA.gov is the U.S. government's official web portal to all federal, state and local government web resources and services.